Time;durP1;ratioP1;P1;durP2;ratioP2;P2;SDS_P1;SDS_P2;PMS_P1;PMS_P2;Temp;Humidity;BMP_temperature;BMP_pressure;BME280_temperature;BME280_humidity;BME280_pressure;Samples;Min_cycle;Max_cycle;Signal;HPM_P1;HPM_P2
2021/12/06 00:02:16;;;;;;;0.00;0.00;;;;;21.00;100579.00;;;;5008356;28;20812;-78
2021/12/06 00:04:46;;;;;;;0.00;0.00;;;;;20.90;100588.00;;;;5009603;28;20042;-77
2021/12/06 00:07:21;;;;;;;0.00;0.00;;;;;20.80;100589.00;;;;5033010;28;20421;-77
2021/12/06 00:09:52;;;;;;;0.00;0.00;;;;;20.80;100580.00;;;;5034462;28;20048;-77
2021/12/06 00:12:21;;;;;;;0.00;0.00;;;;;20.80;100591.00;;;;5027105;28;20053;-76
2021/12/06 00:14:51;;;;;;;0.00;0.00;;;;;20.80;100589.00;;;;5024737;28;20060;-78
2021/12/06 00:17:20;;;;;;;0.35;0.00;;;;;20.80;100589.00;;;;5018576;28;20088;-76
2021/12/06 00:19:50;;;;;;;0.00;0.00;;;;;20.80;100592.00;;;;5025025;28;20049;-77
2021/12/06 00:22:23;;;;;;;0.00;0.00;;;;;20.70;100606.00;;;;5027209;28;20053;-76
2021/12/06 00:24:56;;;;;;;0.00;0.00;;;;;20.60;100595.00;;;;5027320;28;20045;-77
2021/12/06 00:27:27;;;;;;;0.00;0.00;;;;;20.60;100587.00;;;;5026760;28;20073;-75
2021/12/06 00:29:57;;;;;;;0.10;0.10;;;;;20.60;100605.00;;;;5027818;28;20111;-77
2021/12/06 00:32:26;;;;;;;0.57;0.28;;;;;20.60;100616.00;;;;5015395;28;20456;-77
2021/12/06 00:34:56;;;;;;;0.05;0.05;;;;;20.50;100602.00;;;;5006277;28;20112;-76
2021/12/06 00:37:41;;;;;;;0.00;0.00;;;;;20.60;100599.00;;;;5008170;28;20065;-76
2021/12/06 00:40:11;;;;;;;0.00;0.00;;;;;20.50;100607.00;;;;5008481;28;20121;-77
2021/12/06 00:42:43;;;;;;;0.30;0.08;;;;;20.40;100632.00;;;;5024380;28;20508;-76
2021/12/06 00:45:13;;;;;;;0.00;0.00;;;;;20.50;100612.00;;;;5026618;28;20929;-77
2021/12/06 00:47:43;;;;;;;0.13;0.05;;;;;20.50;100608.00;;;;5026802;28;20045;-77
2021/12/06 00:50:15;;;;;;;0.00;0.00;;;;;20.50;100616.00;;;;5027252;28;20045;-76
2021/12/06 00:52:46;;;;;;;0.00;0.00;;;;;20.50;100614.00;;;;5027042;28;20045;-75
2021/12/06 00:55:18;;;;;;;0.00;0.00;;;;;20.60;100629.00;;;;5027452;28;20041;-77
2021/12/06 00:57:52;;;;;;;0.00;0.00;;;;;20.60;100624.00;;;;5025527;28;20404;-78
2021/12/06 01:00:26;;;;;;;0.00;0.00;;;;;20.60;100615.00;;;;5026812;28;20077;-77
2021/12/06 01:02:57;;;;;;;0.00;0.00;;;;;20.70;100628.00;;;;5025343;28;20520;-78
2021/12/06 01:05:27;;;;;;;0.00;0.00;;;;;20.80;100624.00;;;;5025169;28;20084;-77
2021/12/06 01:07:57;;;;;;;0.00;0.00;;;;;20.80;100614.00;;;;5026541;28;20045;-78
2021/12/06 01:10:28;;;;;;;0.00;0.00;;;;;20.80;100623.00;;;;5025509;28;20052;-79
2021/12/06 01:12:57;;;;;;;;;;;;;20.90;100612.00;;;;5026931;28;20046;-78
2021/12/06 01:15:27;;;;;;;0.10;0.10;;;;;20.80;100617.00;;;;5025419;28;19975;-76
2021/12/06 01:17:59;;;;;;;0.00;0.00;;;;;20.80;100606.00;;;;5026411;28;20045;-77
2021/12/06 01:20:33;;;;;;;0.00;0.00;;;;;20.80;100618.00;;;;5026187;28;20042;-77
2021/12/06 01:23:10;;;;;;;0.28;0.20;;;;;20.80;100610.00;;;;5025382;28;20045;-76
2021/12/06 01:28:56;;;;;;;0.30;0.00;;;;;20.80;100617.00;;;;5024547;28;20049;-77
2021/12/06 01:31:33;;;;;;;0.00;0.00;;;;;20.80;100633.00;;;;5025280;28;20045;-78
2021/12/06 01:39:57;;;;;;;0.00;0.00;;;;;20.90;100621.00;;;;5024966;28;20369;-76
2021/12/06 01:42:27;;;;;;;0.00;0.00;;;;;20.90;100637.00;;;;5009237;28;20468;-76
2021/12/06 01:44:59;;;;;;;0.00;0.00;;;;;20.80;100608.00;;;;5025178;28;20057;-77
2021/12/06 01:47:36;;;;;;;0.00;0.00;;;;;20.80;100620.00;;;;5025106;28;20041;-78
2021/12/06 01:50:16;;;;;;;0.00;0.00;;;;;20.80;100621.00;;;;5024908;28;20431;-76
2021/12/06 01:52:54;;;;;;;6.13;1.35;;;;;20.90;100628.00;;;;5026906;28;20480;-76
2021/12/06 01:55:29;;;;;;;0.00;0.00;;;;;20.90;100624.00;;;;5024871;28;20584;-76
2021/12/06 01:57:59;;;;;;;0.00;0.00;;;;;20.90;100627.00;;;;5024837;28;20101;-76
2021/12/06 02:00:40;;;;;;;0.88;0.10;;;;;20.90;100611.00;;;;5024855;28;20060;-77
2021/12/06 02:03:15;;;;;;;0.70;0.13;;;;;20.80;100605.00;;;;5026289;28;20123;-78
2021/12/06 02:05:49;;;;;;;0.00;0.00;;;;;20.80;100608.00;;;;5026251;28;20107;-77
2021/12/06 02:08:25;;;;;;;0.32;0.32;;;;;20.80;100610.00;;;;5024546;28;20049;-77
2021/12/06 02:11:02;;;;;;;0.00;0.00;;;;;20.70;100602.00;;;;5025253;28;20050;-77
2021/12/06 02:16:53;;;;;;;0.00;0.00;;;;;20.80;100601.00;;;;5024153;28;20449;-76
2021/12/06 02:19:30;;;;;;;0.00;0.00;;;;;20.70;100601.00;;;;5025172;28;20642;-75
2021/12/06 02:22:01;;;;;;;0.00;0.00;;;;;20.70;100604.00;;;;5024488;28;20532;-77
2021/12/06 02:24:32;;;;;;;0.00;0.00;;;;;20.80;100604.00;;;;5024887;28;20053;-78
2021/12/06 02:27:03;;;;;;;0.00;0.00;;;;;20.70;100599.00;;;;5027877;28;20127;-75
2021/12/06 02:29:33;;;;;;;0.00;0.00;;;;;20.60;100605.00;;;;5028118;28;20045;-77
2021/12/06 02:32:09;;;;;;;0.00;0.00;;;;;20.60;100610.00;;;;5028413;28;20123;-75
2021/12/06 02:34:51;;;;;;;0.00;0.00;;;;;20.60;100590.00;;;;5030419;28;20326;-76
2021/12/06 02:37:30;;;;;;;0.00;0.00;;;;;20.70;100587.00;;;;5035342;28;20496;-74
2021/12/06 02:40:11;;;;;;;0.00;0.00;;;;;20.70;100573.00;;;;5033220;28;20049;-76
2021/12/06 02:42:43;;;;;;;0.00;0.00;;;;;20.60;100567.00;;;;5028042;28;20053;-76
2021/12/06 02:45:15;;;;;;;0.00;0.00;;;;;20.60;100577.00;;;;5028125;28;20049;-77
2021/12/06 02:47:53;;;;;;;0.00;0.00;;;;;20.60;100582.00;;;;5027933;28;20056;-76
2021/12/06 02:50:33;;;;;;;0.00;0.00;;;;;20.60;100576.00;;;;5028081;28;20050;-77
2021/12/06 02:53:04;;;;;;;0.00;0.00;;;;;20.60;100586.00;;;;5029358;28;20053;-76
2021/12/06 02:55:37;;;;;;;0.00;0.00;;;;;20.50;100572.00;;;;5028035;28;20049;-77
2021/12/06 03:01:26;;;;;;;0.00;0.00;;;;;20.50;100567.00;;;;5026571;28;20049;-77
2021/12/06 03:03:56;;;;;;;0.00;0.00;;;;;20.50;100570.00;;;;5024821;28;20071;-75
2021/12/06 03:06:26;;;;;;;0.00;0.00;;;;;20.50;100561.00;;;;5027658;28;20060;-76
2021/12/06 03:09:08;;;;;;;0.00;0.00;;;;;20.50;100555.00;;;;5027328;28;20144;-77
2021/12/06 03:11:42;;;;;;;0.00;0.00;;;;;20.50;100560.00;;;;5028640;28;20428;-77
2021/12/06 03:14:18;;;;;;;0.00;0.00;;;;;20.50;100560.00;;;;5028732;28;20570;-76
2021/12/06 03:16:51;;;;;;;0.00;0.00;;;;;20.60;100571.00;;;;5027421;28;20049;-75
2021/12/06 03:19:23;;;;;;;0.00;0.00;;;;;20.60;100565.00;;;;5027041;28;20144;-76
2021/12/06 03:21:54;;;;;;;0.00;0.00;;;;;20.60;100553.00;;;;5027392;28;20504;-78
2021/12/06 03:24:23;;;;;;;0.00;0.00;;;;;20.60;100562.00;;;;5028087;28;20060;-76
2021/12/06 03:26:54;;;;;;;0.00;0.00;;;;;20.60;100557.00;;;;5028433;28;20080;-77
2021/12/06 03:29:24;;;;;;;0.00;0.00;;;;;20.70;100564.00;;;;5027725;28;20042;-76
2021/12/06 03:31:53;;;;;;;0.00;0.00;;;;;20.70;100566.00;;;;5026540;28;20675;-76
2021/12/06 03:34:26;;;;;;;0.00;0.00;;;;;20.70;100556.00;;;;5028667;28;20041;-77
2021/12/06 03:37:01;;;;;;;0.00;0.00;;;;;20.80;100566.00;;;;5026816;28;20053;-75
2021/12/06 03:39:44;;;;;;;0.00;0.00;;;;;20.80;100557.00;;;;5026903;28;20049;-76
2021/12/06 03:42:24;;;;;;;0.00;0.00;;;;;20.80;100539.00;;;;5026663;28;20045;-76
2021/12/06 03:44:54;;;;;;;0.00;0.00;;;;;20.80;100554.00;;;;5027035;28;20049;-77
2021/12/06 03:47:29;;;;;;;;;;;;;20.80;100546.00;;;;5027465;28;20516;-78
2021/12/06 03:50:02;;;;;;;0.00;0.00;;;;;20.80;100533.00;;;;5027737;28;20031;-75
2021/12/06 03:52:32;;;;;;;0.00;0.00;;;;;20.80;100528.00;;;;5028081;28;20427;-77
2021/12/06 03:55:05;;;;;;;0.00;0.00;;;;;20.70;100526.00;;;;5026889;28;20459;-75
2021/12/06 03:57:36;;;;;;;0.00;0.00;;;;;20.60;100529.00;;;;5026753;28;20299;-77
2021/12/06 04:00:09;;;;;;;0.00;0.00;;;;;20.50;100515.00;;;;5026723;28;20080;-77
2021/12/06 04:02:49;;;;;;;0.00;0.00;;;;;20.40;100521.00;;;;5028118;28;20056;-77
2021/12/06 04:05:21;;;;;;;0.00;0.00;;;;;20.30;100519.00;;;;5010820;28;20049;-76
2021/12/06 04:07:52;;;;;;;0.00;0.00;;;;;20.20;100504.00;;;;5026688;28;20539;-77
2021/12/06 04:10:26;;;;;;;0.00;0.00;;;;;20.10;100490.00;;;;5026514;28;20107;-75
2021/12/06 04:12:57;;;;;;;;;;;;;20.10;100511.00;;;;5027699;28;20038;-75
2021/12/06 04:15:31;;;;;;;0.00;0.00;;;;;20.10;100489.00;;;;5026585;28;20311;-78
2021/12/06 04:18:01;;;;;;;0.00;0.00;;;;;20.20;100494.00;;;;5026431;28;20049;-76
2021/12/06 04:20:31;;;;;;;0.00;0.00;;;;;20.20;100476.00;;;;5026559;28;20084;-75
2021/12/06 04:23:04;;;;;;;0.00;0.00;;;;;20.20;100474.00;;;;5009646;28;20057;-77
2021/12/06 04:25:35;;;;;;;0.00;0.00;;;;;20.20;100491.00;;;;5027504;28;20479;-77
2021/12/06 04:28:06;;;;;;;0.00;0.00;;;;;20.20;100497.00;;;;5025434;28;20575;-75
2021/12/06 04:30:39;;;;;;;0.00;0.00;;;;;20.30;100512.00;;;;5027803;28;20044;-77
2021/12/06 04:33:09;;;;;;;0.00;0.00;;;;;20.30;100485.00;;;;5026316;28;20056;-78
2021/12/06 04:35:39;;;;;;;0.00;0.00;;;;;20.30;100480.00;;;;5027981;28;20527;-75
2021/12/06 04:38:09;;;;;;;;;;;;;20.50;100485.00;;;;5026919;28;20530;-75
2021/12/06 04:40:40;;;;;;;0.10;0.10;;;;;20.60;100488.00;;;;5025809;28;19969;-77
2021/12/06 04:43:10;;;;;;;0.00;0.00;;;;;20.60;100482.00;;;;5028117;28;20064;-75
2021/12/06 04:45:40;;;;;;;0.00;0.00;;;;;20.60;100475.00;;;;5025956;28;20096;-77
2021/12/06 04:48:10;;;;;;;0.00;0.00;;;;;20.60;100482.00;;;;5024665;28;20053;-76
2021/12/06 04:50:42;;;;;;;0.00;0.00;;;;;20.60;100477.00;;;;5025841;28;20054;-77
2021/12/06 04:53:25;;;;;;;0.00;0.00;;;;;20.60;100469.00;;;;5027252;28;20124;-74
2021/12/06 04:56:29;;;;;;;0.00;0.00;;;;;20.50;100490.00;;;;5025654;28;20413;-77
2021/12/06 04:59:15;;;;;;;0.00;0.00;;;;;20.50;100489.00;;;;5026101;28;20520;-77
2021/12/06 05:01:49;;;;;;;0.00;0.00;;;;;20.60;100482.00;;;;5025836;28;20049;-75
2021/12/06 05:04:24;;;;;;;0.17;0.17;;;;;20.60;100478.00;;;;5025461;28;20119;-75
2021/12/06 05:06:59;;;;;;;0.00;0.00;;;;;20.60;100473.00;;;;5030356;28;20060;-77
2021/12/06 05:09:34;;;;;;;0.10;0.10;;;;;20.60;100473.00;;;;5033901;28;20046;-76
2021/12/06 05:12:08;;;;;;;0.43;0.43;;;;;20.50;100464.00;;;;5025653;28;20049;-77
2021/12/06 05:14:39;;;;;;;0.00;0.00;;;;;20.50;100451.00;;;;5024824;28;20045;-76
2021/12/06 05:17:09;;;;;;;0.00;0.00;;;;;20.40;100476.00;;;;5024671;28;20056;-75
2021/12/06 05:19:38;;;;;;;0.00;0.00;;;;;20.30;100476.00;;;;5025430;28;20044;-78
2021/12/06 05:22:09;;;;;;;0.00;0.00;;;;;20.30;100476.00;;;;5026579;28;20048;-77
2021/12/06 05:24:40;;;;;;;0.00;0.00;;;;;20.30;100476.00;;;;5025665;28;20053;-75
2021/12/06 05:27:09;;;;;;;0.00;0.00;;;;;20.20;100484.00;;;;5026326;28;20111;-76
2021/12/06 05:29:45;;;;;;;0.00;0.00;;;;;20.20;100460.00;;;;5025210;28;20059;-76
2021/12/06 05:32:15;;;;;;;0.60;0.20;;;;;20.30;100446.00;;;;5025186;28;20520;-77
2021/12/06 05:34:46;;;;;;;0.00;0.00;;;;;20.30;100440.00;;;;5026256;28;20061;-75
2021/12/06 05:37:15;;;;;;;0.00;0.00;;;;;20.20;100467.00;;;;5026249;28;20045;-76
2021/12/06 05:39:45;;;;;;;0.00;0.00;;;;;20.10;100467.00;;;;5026085;28;20053;-77
2021/12/06 05:42:17;;;;;;;0.00;0.00;;;;;20.10;100470.00;;;;5026363;28;20057;-77
2021/12/06 05:44:46;;;;;;;0.00;0.00;;;;;20.10;100455.00;;;;5026218;28;20076;-77
2021/12/06 05:47:16;;;;;;;0.00;0.00;;;;;20.10;100457.00;;;;5026331;28;20508;-75
2021/12/06 05:49:45;;;;;;;0.00;0.00;;;;;20.10;100461.00;;;;5026216;28;20060;-77
2021/12/06 05:52:15;;;;;;;0.00;0.00;;;;;20.00;100447.00;;;;5026293;28;20119;-76
2021/12/06 05:54:44;;;;;;;0.08;0.08;;;;;20.10;100451.00;;;;5026474;28;20049;-76
2021/12/06 05:57:14;;;;;;;0.20;0.13;;;;;20.10;100461.00;;;;5025755;28;20045;-77
2021/12/06 05:59:45;;;;;;;0.00;0.00;;;;;20.20;100470.00;;;;5027945;28;20045;-74
2021/12/06 06:02:16;;;;;;;0.10;0.10;;;;;20.20;100458.00;;;;5030637;28;20349;-76
2021/12/06 06:04:45;;;;;;;0.00;0.00;;;;;20.30;100464.00;;;;5030308;28;20045;-76
2021/12/06 06:07:15;;;;;;;0.00;0.00;;;;;20.30;100460.00;;;;5030356;28;20053;-75
2021/12/06 06:09:44;;;;;;;0.00;0.00;;;;;20.40;100472.00;;;;5030289;28;20057;-75
2021/12/06 06:12:13;;;;;;;0.00;0.00;;;;;20.40;100448.00;;;;5030292;28;20475;-77
2021/12/06 06:14:43;;;;;;;0.00;0.00;;;;;20.40;100451.00;;;;5029708;28;20045;-75
2021/12/06 06:17:14;;;;;;;0.00;0.00;;;;;20.40;100443.00;;;;5030195;28;20053;-74
2021/12/06 06:19:48;;;;;;;0.00;0.00;;;;;20.40;100450.00;;;;5030499;28;20143;-77
2021/12/06 06:22:19;;;;;;;0.00;0.00;;;;;20.30;100454.00;;;;5029791;28;20044;-76
2021/12/06 06:24:48;;;;;;;0.00;0.00;;;;;20.20;100450.00;;;;5029583;28;20103;-76
2021/12/06 06:27:17;;;;;;;0.00;0.00;;;;;20.10;100430.00;;;;5029476;28;20065;-77
2021/12/06 06:29:46;;;;;;;0.00;0.00;;;;;20.00;100438.00;;;;5032244;28;20042;-77
2021/12/06 06:32:16;;;;;;;0.00;0.00;;;;;20.00;100422.00;;;;5037900;28;20458;-77
2021/12/06 06:47:30;;;;;;;0.00;0.00;;;;;19.00;100496.00;;;;5145703;27;20428;-84
2021/12/06 06:50:00;;;;;;;0.00;0.00;;;;;18.90;100492.00;;;;5123854;28;20089;-84
2021/12/06 06:52:29;;;;;;;0.00;0.00;;;;;18.70;100485.00;;;;5123522;28;20063;-82
2021/12/06 06:54:59;;;;;;;1.88;0.70;;;;;18.50;100482.00;;;;5123257;28;20051;-82
2021/12/06 06:57:29;;;;;;;0.00;0.00;;;;;18.20;100450.00;;;;5123802;28;20421;-84
2021/12/06 06:59:59;;;;;;;0.00;0.00;;;;;18.10;100449.00;;;;5124493;27;20043;-79
2021/12/06 07:02:28;;;;;;;0.52;0.03;;;;;18.20;100462.00;;;;5124502;27;20039;-79
2021/12/06 07:04:58;;;;;;;0.05;0.05;;;;;18.20;100491.00;;;;5124175;27;20853;-80
2021/12/06 07:07:27;;;;;;;0.00;0.00;;;;;18.20;100516.00;;;;5124197;27;20051;-80
2021/12/06 07:09:56;;;;;;;0.20;0.20;;;;;18.00;100494.00;;;;5122653;28;20082;-80
2021/12/06 07:12:26;;;;;;;0.00;0.00;;;;;17.70;100503.00;;;;5124173;27;20439;-81
2021/12/06 07:14:56;;;;;;;0.00;0.00;;;;;17.60;100504.00;;;;5124081;27;20091;-82
2021/12/06 07:17:25;;;;;;;0.00;0.00;;;;;17.60;100486.00;;;;5123611;28;20044;-82
2021/12/06 07:32:50;;;;;;;0.00;0.00;;;;;17.70;100504.00;;;;5104538;27;21001;-78
2021/12/06 07:35:23;;;;;;;0.00;0.00;;;;;17.60;100508.00;;;;5104115;28;20540;-77
2021/12/06 07:37:53;;;;;;;0.00;0.00;;;;;17.50;100504.00;;;;5103477;28;20047;-78
2021/12/06 07:40:23;;;;;;;0.10;0.08;;;;;17.40;100490.00;;;;5103748;28;20092;-78
2021/12/06 07:42:52;;;;;;;0.00;0.00;;;;;17.50;100513.00;;;;5103931;28;20089;-79
2021/12/06 07:45:21;;;;;;;0.13;0.13;;;;;17.60;100538.00;;;;5104218;28;20047;-78
2021/12/06 07:47:51;;;;;;;0.00;0.00;;;;;17.60;100521.00;;;;5103188;28;20077;-78
2021/12/06 07:50:21;;;;;;;0.00;0.00;;;;;17.60;100546.00;;;;5104270;28;20036;-77
2021/12/06 07:52:53;;;;;;;0.00;0.00;;;;;17.40;100541.00;;;;5103956;28;20401;-76
2021/12/06 07:55:26;;;;;;;0.00;0.00;;;;;17.30;100545.00;;;;5103326;28;20127;-76
2021/12/06 07:57:57;;;;;;;0.15;0.10;;;;;17.30;100566.00;;;;5102848;28;20043;-77
2021/12/06 08:00:30;;;;;;;0.00;0.00;;;;;17.10;100565.00;;;;5103246;28;20044;-78
2021/12/06 08:03:01;;;;;;;0.00;0.00;;;;;17.00;100569.00;;;;5102776;28;20514;-76
2021/12/06 08:05:31;;;;;;;0.00;0.00;;;;;16.90;100560.00;;;;5102170;28;20097;-77
2021/12/06 08:08:17;;;;;;;0.13;0.00;;;;;17.00;100552.00;;;;5102183;28;20050;-80
2021/12/06 08:10:50;;;;;;;0.00;0.00;;;;;17.00;100554.00;;;;5103297;28;20121;-78
2021/12/06 08:13:23;;;;;;;0.10;0.10;;;;;17.10;100546.00;;;;5101823;28;20040;-80
2021/12/06 08:15:56;;;;;;;0.00;0.00;;;;;17.20;100565.00;;;;5104278;28;20078;-79
2021/12/06 08:18:25;;;;;;;0.00;0.00;;;;;17.50;100567.00;;;;5101852;28;20048;-78
2021/12/06 08:20:56;;;;;;;0.00;0.00;;;;;17.50;100551.00;;;;5101308;28;20043;-77
2021/12/06 08:23:26;;;;;;;0.20;0.00;;;;;17.50;100566.00;;;;5103034;28;20056;-78
2021/12/06 08:25:56;;;;;;;0.00;0.00;;;;;17.40;100606.00;;;;5103075;28;20097;-78
2021/12/06 08:28:28;;;;;;;0.20;0.20;;;;;17.30;100608.00;;;;5103121;28;20040;-79
2021/12/06 08:30:57;;;;;;;0.00;0.00;;;;;17.10;100599.00;;;;5103391;28;20499;-78
2021/12/06 08:33:28;;;;;;;0.32;0.20;;;;;17.00;100577.00;;;;5091521;28;20040;-79
2021/12/06 08:36:00;;;;;;;0.45;0.45;;;;;17.10;100583.00;;;;5090251;28;20082;-78
2021/12/06 08:38:31;;;;;;;0.00;0.00;;;;;17.00;100594.00;;;;5089159;28;20046;-78
2021/12/06 08:41:06;;;;;;;0.00;0.00;;;;;17.00;100591.00;;;;5089870;28;20506;-77
2021/12/06 08:43:38;;;;;;;0.40;0.20;;;;;17.00;100606.00;;;;5089789;28;20036;-77
2021/12/06 08:46:19;;;;;;;0.00;0.00;;;;;17.20;100600.00;;;;5089311;28;20145;-79
2021/12/06 08:48:50;;;;;;;0.00;0.00;;;;;17.20;100639.00;;;;5089730;28;20048;-77
2021/12/06 08:51:22;;;;;;;;;;;;;17.30;100641.00;;;;5089957;28;20044;-77
2021/12/06 08:53:53;;;;;;;0.00;0.00;;;;;17.30;100622.00;;;;5089309;28;19920;-77
2021/12/06 08:56:24;;;;;;;0.00;0.00;;;;;17.30;100648.00;;;;5089169;28;20044;-77
2021/12/06 08:58:55;;;;;;;0.00;0.00;;;;;17.40;100650.00;;;;5089149;28;20089;-78
2021/12/06 09:01:25;;;;;;;0.00;0.00;;;;;17.50;100643.00;;;;5088129;28;20109;-76
2021/12/06 09:04:16;;;;;;;0.00;0.00;;;;;17.50;100626.00;;;;5088945;28;20445;-77
2021/12/06 09:06:50;;;;;;;0.00;0.00;;;;;17.40;100620.00;;;;5088828;28;20131;-79
2021/12/06 09:09:21;;;;;;;0.00;0.00;;;;;17.50;100628.00;;;;5088212;28;20044;-77
2021/12/06 09:11:53;;;;;;;0.00;0.00;;;;;17.50;100630.00;;;;5088744;28;20044;-77
2021/12/06 09:14:23;;;;;;;;;;;;;17.50;100653.00;;;;5089550;28;20044;-76
2021/12/06 09:16:53;;;;;;;0.00;0.00;;;;;17.60;100658.00;;;;5089531;28;20483;-76
2021/12/06 09:19:22;;;;;;;0.00;0.00;;;;;17.60;100674.00;;;;5087933;28;20064;-78
2021/12/06 09:21:52;;;;;;;0.00;0.00;;;;;17.60;100656.00;;;;5088893;28;20075;-76
2021/12/06 09:24:22;;;;;;;0.00;0.00;;;;;17.60;100682.00;;;;5086526;28;20040;-78
2021/12/06 09:26:52;;;;;;;0.00;0.00;;;;;17.60;100681.00;;;;5088464;28;20036;-77
2021/12/06 09:29:24;;;;;;;0.00;0.00;;;;;17.60;100675.00;;;;5088247;28;20413;-77
2021/12/06 09:31:59;;;;;;;0.00;0.00;;;;;17.80;100685.00;;;;5088249;28;20072;-76
2021/12/06 09:34:30;;;;;;;0.00;0.00;;;;;17.80;100690.00;;;;5087895;28;20044;-76
2021/12/06 09:37:00;;;;;;;;;;;;;17.80;100706.00;;;;5086613;28;20051;-77
2021/12/06 09:39:31;;;;;;;0.00;0.00;;;;;17.80;100699.00;;;;5087590;28;20364;-77
2021/12/06 09:42:00;;;;;;;0.00;0.00;;;;;17.90;100685.00;;;;5088164;28;20044;-77
2021/12/06 09:44:30;;;;;;;0.00;0.00;;;;;17.90;100693.00;;;;5087540;28;20510;-77
2021/12/06 09:47:01;;;;;;;0.00;0.00;;;;;17.90;100705.00;;;;5088158;28;20056;-77
2021/12/06 09:49:31;;;;;;;0.00;0.00;;;;;17.90;100705.00;;;;5088321;28;20040;-78
2021/12/06 09:52:03;;;;;;;0.00;0.00;;;;;17.90;100722.00;;;;5087548;28;20044;-78
2021/12/06 09:54:38;;;;;;;0.00;0.00;;;;;17.90;100731.00;;;;5089052;28;20078;-75
2021/12/06 09:57:10;;;;;;;0.00;0.00;;;;;17.90;100729.00;;;;5087998;28;20411;-76
2021/12/06 09:59:42;;;;;;;0.00;0.00;;;;;17.90;100741.00;;;;5087210;28;20078;-77
2021/12/06 10:02:20;;;;;;;0.00;0.00;;;;;18.00;100738.00;;;;5087903;28;20036;-77
2021/12/06 10:04:55;;;;;;;0.00;0.00;;;;;18.00;100744.00;;;;5087741;28;20085;-77
2021/12/06 10:07:26;;;;;;;0.00;0.00;;;;;18.10;100756.00;;;;5086215;28;20093;-76
2021/12/06 10:09:56;;;;;;;0.00;0.00;;;;;18.10;100746.00;;;;5087245;28;20456;-78
2021/12/06 10:12:26;;;;;;;0.00;0.00;;;;;18.10;100728.00;;;;5087741;28;20055;-78
2021/12/06 10:14:56;;;;;;;0.00;0.00;;;;;18.20;100742.00;;;;5088337;28;20048;-75
2021/12/06 10:17:26;;;;;;;0.00;0.00;;;;;18.20;100750.00;;;;5087211;28;20434;-77
2021/12/06 10:19:56;;;;;;;0.00;0.00;;;;;18.20;100739.00;;;;5087474;28;20526;-77
2021/12/06 10:22:28;;;;;;;0.00;0.00;;;;;18.30;100739.00;;;;5087690;28;20043;-76
2021/12/06 10:25:00;;;;;;;0.00;0.00;;;;;18.20;100769.00;;;;5087399;28;20043;-77
2021/12/06 10:28:03;;;;;;;0.00;0.00;;;;;18.30;100761.00;;;;5086831;28;20131;-78
2021/12/06 10:30:40;;;;;;;0.05;0.05;;;;;18.30;100745.00;;;;5086427;28;20044;-77
2021/12/06 10:33:17;;;;;;;0.10;0.10;;;;;18.30;100772.00;;;;5086869;28;20470;-78
2021/12/06 10:35:53;;;;;;;0.00;0.00;;;;;18.30;100780.00;;;;5087615;28;20072;-77
2021/12/06 10:38:33;;;;;;;0.20;0.10;;;;;18.10;100766.00;;;;5086967;28;20145;-78
2021/12/06 10:41:10;;;;;;;0.00;0.00;;;;;18.00;100784.00;;;;5087229;28;20139;-76
2021/12/06 10:43:48;;;;;;;0.00;0.00;;;;;18.10;100789.00;;;;5086080;28;20665;-79
2021/12/06 10:46:19;;;;;;;0.00;0.00;;;;;18.00;100784.00;;;;5087208;28;20093;-77
2021/12/06 10:48:53;;;;;;;0.00;0.00;;;;;18.00;100778.00;;;;5087002;28;20043;-76
2021/12/06 10:51:26;;;;;;;0.10;0.10;;;;;18.00;100778.00;;;;5087507;28;20040;-78
2021/12/06 10:54:06;;;;;;;0.00;0.00;;;;;18.00;100802.00;;;;5085585;28;20387;-78
2021/12/06 10:56:47;;;;;;;0.00;0.00;;;;;18.10;100798.00;;;;5087055;28;20394;-78
2021/12/06 10:59:24;;;;;;;0.00;0.00;;;;;18.30;100777.00;;;;5086729;28;20044;-77
2021/12/06 11:01:58;;;;;;;0.00;0.00;;;;;18.40;100781.00;;;;5085452;28;20426;-78
2021/12/06 11:04:29;;;;;;;0.00;0.00;;;;;18.40;100782.00;;;;5086314;28;20076;-78
2021/12/06 11:07:09;;;;;;;;;;;;;18.40;100815.00;;;;5087286;28;20036;-78
2021/12/06 11:09:42;;;;;;;0.00;0.00;;;;;18.40;100796.00;;;;5087600;28;19920;-75
2021/12/06 11:12:19;;;;;;;0.25;0.25;;;;;18.50;100813.00;;;;5086606;28;20437;-77
2021/12/06 11:14:50;;;;;;;0.00;0.00;;;;;18.40;100814.00;;;;5086158;28;20051;-77
2021/12/06 11:17:20;;;;;;;0.00;0.00;;;;;18.40;100811.00;;;;5086710;28;20098;-75
2021/12/06 11:19:51;;;;;;;0.00;0.00;;;;;18.40;100810.00;;;;5086626;28;20071;-76
2021/12/06 11:22:24;;;;;;;0.00;0.00;;;;;18.50;100813.00;;;;5086334;28;20172;-75
2021/12/06 11:24:55;;;;;;;0.00;0.00;;;;;18.60;100791.00;;;;5086309;28;20048;-76
2021/12/06 11:27:38;;;;;;;0.00;0.00;;;;;18.70;100803.00;;;;5084468;28;20422;-77
2021/12/06 11:30:15;;;;;;;0.00;0.00;;;;;18.80;100783.00;;;;5086376;28;20044;-75
2021/12/06 11:32:54;;;;;;;0.00;0.00;;;;;19.10;100765.00;;;;5087305;28;20171;-75
2021/12/06 11:35:28;;;;;;;0.00;0.00;;;;;19.20;100788.00;;;;5086687;28;20067;-77
2021/12/06 11:38:01;;;;;;;0.00;0.00;;;;;19.40;100770.00;;;;5086312;28;20036;-75
2021/12/06 11:40:38;;;;;;;0.00;0.00;;;;;19.40;100771.00;;;;5086683;28;20048;-76
2021/12/06 11:43:12;;;;;;;0.00;0.00;;;;;19.60;100781.00;;;;5085948;28;20067;-79
2021/12/06 11:45:57;;;;;;;0.00;0.00;;;;;20.00;100743.00;;;;5086341;28;20507;-75
2021/12/06 11:48:30;;;;;;;0.30;0.20;;;;;20.10;100738.00;;;;5084906;28;20048;-77
2021/12/06 11:51:18;;;;;;;0.00;0.00;;;;;20.30;100742.00;;;;5086507;28;20044;-75
2021/12/06 11:53:52;;;;;;;0.00;0.00;;;;;20.50;100769.00;;;;5086223;28;20048;-74
2021/12/06 11:56:26;;;;;;;0.00;0.00;;;;;20.60;100769.00;;;;5084553;28;20044;-73
2021/12/06 11:59:05;;;;;;;0.00;0.00;;;;;20.90;100759.00;;;;5086200;28;20060;-74
2021/12/06 12:01:51;;;;;;;0.10;0.10;;;;;21.70;100755.00;;;;5086643;28;21046;-74
2021/12/06 12:04:24;;;;;;;0.00;0.00;;;;;21.70;100756.00;;;;5086053;28;20094;-76
2021/12/06 12:07:00;;;;;;;0.00;0.00;;;;;22.10;100760.00;;;;5085617;28;20039;-75
2021/12/06 12:09:39;;;;;;;0.08;0.08;;;;;22.10;100746.00;;;;5090403;28;20051;-74
2021/12/06 12:12:11;;;;;;;0.10;0.10;;;;;22.00;100750.00;;;;5088318;28;20055;-75
2021/12/06 12:14:54;;;;;;;0.00;0.00;;;;;22.50;100736.00;;;;5089878;28;20044;-72
2021/12/06 12:17:31;;;;;;;0.00;0.00;;;;;22.70;100741.00;;;;5089865;28;20495;-74
2021/12/06 12:20:06;;;;;;;0.00;0.00;;;;;23.20;100719.00;;;;5090225;28;20545;-74
2021/12/06 12:22:40;;;;;;;0.00;0.00;;;;;23.20;100723.00;;;;5090138;28;20040;-73
2021/12/06 12:25:20;;;;;;;0.00;0.00;;;;;23.50;100732.00;;;;5089766;28;20048;-75
2021/12/06 12:28:02;;;;;;;0.00;0.00;;;;;23.40;100757.00;;;;5087983;28;20143;-74
2021/12/06 12:30:32;;;;;;;0.00;0.00;;;;;23.00;100754.00;;;;5087953;28;20144;-75
2021/12/06 12:33:06;;;;;;;0.05;0.05;;;;;23.00;100749.00;;;;5090397;28;20093;-75
2021/12/06 12:35:37;;;;;;;0.00;0.00;;;;;23.20;100728.00;;;;5089703;28;20040;-74
2021/12/06 12:38:09;;;;;;;0.00;0.00;;;;;23.40;100724.00;;;;5089024;28;20044;-78
2021/12/06 12:40:46;;;;;;;0.00;0.00;;;;;23.50;100710.00;;;;5089912;28;20054;-74
2021/12/06 12:43:20;;;;;;;0.13;0.13;;;;;23.70;100717.00;;;;5089125;28;20040;-76
2021/12/06 12:45:54;;;;;;;0.00;0.00;;;;;23.90;100717.00;;;;5088970;28;20063;-73
2021/12/06 12:48:28;;;;;;;0.00;0.00;;;;;24.10;100692.00;;;;5089002;28;20483;-73
2021/12/06 12:51:12;;;;;;;0.10;0.10;;;;;24.70;100678.00;;;;5089199;28;20117;-76
2021/12/06 12:54:03;;;;;;;1.33;0.43;;;;;25.40;100676.00;;;;5088800;28;20040;-72
2021/12/06 12:56:45;;;;;;;0.00;0.00;;;;;26.10;100698.00;;;;5088637;28;20501;-71
2021/12/06 12:59:36;;;;;;;1.10;0.10;;;;;25.20;100707.00;;;;5088635;28;20051;-74
2021/12/06 13:02:14;;;;;;;0.00;0.00;;;;;24.20;100746.00;;;;5088430;28;20748;-71
2021/12/06 13:04:59;;;;;;;1.17;0.65;;;;;23.80;100762.00;;;;5089079;28;20064;-71
2021/12/06 13:07:41;;;;;;;0.00;0.00;;;;;23.50;100746.00;;;;5088849;28;20403;-73
2021/12/06 13:10:40;;;;;;;0.00;0.00;;;;;23.80;100736.00;;;;5088713;28;20503;-73
2021/12/06 13:13:24;;;;;;;0.00;0.00;;;;;24.50;100737.00;;;;5088716;28;20067;-73
2021/12/06 13:16:04;;;;;;;0.00;0.00;;;;;24.90;100728.00;;;;5088813;28;20040;-75
2021/12/06 13:21:44;;;;;;;0.00;0.00;;;;;27.20;100696.00;;;;5088287;28;20119;-71
2021/12/06 13:24:15;;;;;;;0.10;0.00;;;;;27.40;100731.00;;;;5087305;28;20418;-74
2021/12/06 13:26:46;;;;;;;0.00;0.00;;;;;26.90;100692.00;;;;5088757;28;20044;-72